sensor_id;sensor_type;location;lat;lon;timestamp;P1;durP1;ratioP1;P2;durP2;ratioP2
71679;SDS011;59512;42.662;23.254;2024-01-15T00:01:40;63.10;;;32.13;;
71679;SDS011;59512;42.662;23.254;2024-01-15T00:04:07;60.88;;;29.92;;
71679;SDS011;59512;42.662;23.254;2024-01-15T00:06:33;61.33;;;31.33;;
71679;SDS011;59512;42.662;23.254;2024-01-15T00:08:58;63.30;;;30.40;;
71679;SDS011;59512;42.662;23.254;2024-01-15T00:11:24;60.60;;;30.07;;
71679;SDS011;59512;42.662;23.254;2024-01-15T00:13:49;66.78;;;34.33;;
71679;SDS011;59512;42.662;23.254;2024-01-15T00:16:14;63.28;;;32.83;;
71679;SDS011;59512;42.662;23.254;2024-01-15T00:18:40;58.73;;;29.67;;
71679;SDS011;59512;42.662;23.254;2024-01-15T00:21:05;69.77;;;33.60;;
71679;SDS011;59512;42.662;23.254;2024-01-15T00:23:31;60.97;;;30.20;;
71679;SDS011;59512;42.662;23.254;2024-01-15T00:25:56;67.50;;;32.93;;
71679;SDS011;59512;42.662;23.254;2024-01-15T00:28:21;64.57;;;33.58;;
71679;SDS011;59512;42.662;23.254;2024-01-15T00:30:47;62.60;;;31.13;;
71679;SDS011;59512;42.662;23.254;2024-01-15T00:33:12;56.13;;;29.73;;
71679;SDS011;59512;42.662;23.254;2024-01-15T00:35:39;55.93;;;28.53;;
71679;SDS011;59512;42.662;23.254;2024-01-15T00:38:05;57.85;;;29.45;;
71679;SDS011;59512;42.662;23.254;2024-01-15T00:40:30;60.30;;;31.00;;
71679;SDS011;59512;42.662;23.254;2024-01-15T00:42:55;60.80;;;32.03;;
71679;SDS011;59512;42.662;23.254;2024-01-15T00:45:21;60.37;;;29.13;;
71679;SDS011;59512;42.662;23.254;2024-01-15T00:47:46;55.40;;;28.03;;
71679;SDS011;59512;42.662;23.254;2024-01-15T00:50:12;54.13;;;27.45;;
71679;SDS011;59512;42.662;23.254;2024-01-15T00:52:37;45.58;;;24.10;;
71679;SDS011;59512;42.662;23.254;2024-01-15T00:55:03;45.07;;;24.10;;
71679;SDS011;59512;42.662;23.254;2024-01-15T00:57:28;48.70;;;24.13;;
71679;SDS011;59512;42.662;23.254;2024-01-15T00:59:54;44.85;;;23.92;;
71679;SDS011;59512;42.662;23.254;2024-01-15T01:02:19;53.23;;;27.37;;
71679;SDS011;59512;42.662;23.254;2024-01-15T01:04:45;46.60;;;25.33;;
71679;SDS011;59512;42.662;23.254;2024-01-15T01:07:10;48.27;;;23.60;;
71679;SDS011;59512;42.662;23.254;2024-01-15T01:09:35;46.47;;;24.20;;
71679;SDS011;59512;42.662;23.254;2024-01-15T01:12:01;49.87;;;24.60;;
71679;SDS011;59512;42.662;23.254;2024-01-15T01:14:26;47.37;;;24.90;;
71679;SDS011;59512;42.662;23.254;2024-01-15T01:16:51;44.75;;;23.90;;
71679;SDS011;59512;42.662;23.254;2024-01-15T01:19:17;41.58;;;22.58;;
71679;SDS011;59512;42.662;23.254;2024-01-15T01:21:42;42.97;;;23.00;;
71679;SDS011;59512;42.662;23.254;2024-01-15T01:24:08;44.77;;;23.17;;
71679;SDS011;59512;42.662;23.254;2024-01-15T01:26:33;41.70;;;22.50;;
71679;SDS011;59512;42.662;23.254;2024-01-15T01:28:59;43.65;;;22.30;;
71679;SDS011;59512;42.662;23.254;2024-01-15T01:31:24;42.88;;;21.83;;
71679;SDS011;59512;42.662;23.254;2024-01-15T01:33:50;41.63;;;21.90;;
71679;SDS011;59512;42.662;23.254;2024-01-15T01:36:15;42.77;;;22.43;;
71679;SDS011;59512;42.662;23.254;2024-01-15T01:38:40;45.10;;;22.07;;
71679;SDS011;59512;42.662;23.254;2024-01-15T01:41:06;41.80;;;21.83;;
71679;SDS011;59512;42.662;23.254;2024-01-15T01:43:32;42.37;;;21.07;;
71679;SDS011;59512;42.662;23.254;2024-01-15T01:45:58;43.95;;;22.08;;
71679;SDS011;59512;42.662;23.254;2024-01-15T01:48:25;41.20;;;21.90;;
71679;SDS011;59512;42.662;23.254;2024-01-15T01:50:52;46.20;;;23.60;;
71679;SDS011;59512;42.662;23.254;2024-01-15T01:53:19;46.00;;;22.90;;
71679;SDS011;59512;42.662;23.254;2024-01-15T01:55:44;41.00;;;21.53;;
71679;SDS011;59512;42.662;23.254;2024-01-15T01:58:10;44.90;;;22.08;;
71679;SDS011;59512;42.662;23.254;2024-01-15T02:00:36;42.00;;;22.70;;
71679;SDS011;59512;42.662;23.254;2024-01-15T02:03:01;41.70;;;21.63;;
71679;SDS011;59512;42.662;23.254;2024-01-15T02:05:28;45.15;;;21.92;;
71679;SDS011;59512;42.662;23.254;2024-01-15T02:07:54;45.20;;;21.97;;
71679;SDS011;59512;42.662;23.254;2024-01-15T02:10:19;44.90;;;22.25;;
71679;SDS011;59512;42.662;23.254;2024-01-15T02:12:45;46.67;;;23.90;;
71679;SDS011;59512;42.662;23.254;2024-01-15T02:15:13;40.83;;;21.92;;
71679;SDS011;59512;42.662;23.254;2024-01-15T02:20:26;42.30;;;22.23;;
71679;SDS011;59512;42.662;23.254;2024-01-15T02:22:52;42.90;;;21.90;;
71679;SDS011;59512;42.662;23.254;2024-01-15T02:25:18;44.75;;;21.77;;
71679;SDS011;59512;42.662;23.254;2024-01-15T02:27:44;46.97;;;22.52;;
71679;SDS011;59512;42.662;23.254;2024-01-15T02:30:10;42.45;;;22.75;;
71679;SDS011;59512;42.662;23.254;2024-01-15T02:32:36;39.97;;;21.40;;
71679;SDS011;59512;42.662;23.254;2024-01-15T02:35:02;39.63;;;21.63;;
71679;SDS011;59512;42.662;23.254;2024-01-15T02:37:27;40.33;;;20.23;;
71679;SDS011;59512;42.662;23.254;2024-01-15T02:39:53;51.07;;;26.33;;
71679;SDS011;59512;42.662;23.254;2024-01-15T02:42:18;54.97;;;26.93;;
71679;SDS011;59512;42.662;23.254;2024-01-15T02:44:44;49.33;;;24.23;;
71679;SDS011;59512;42.662;23.254;2024-01-15T02:47:09;48.08;;;24.20;;
71679;SDS011;59512;42.662;23.254;2024-01-15T02:49:34;47.33;;;25.13;;
71679;SDS011;59512;42.662;23.254;2024-01-15T02:52:00;49.80;;;25.60;;
71679;SDS011;59512;42.662;23.254;2024-01-15T02:54:25;47.20;;;25.33;;
71679;SDS011;59512;42.662;23.254;2024-01-15T02:56:50;47.30;;;25.53;;
71679;SDS011;59512;42.662;23.254;2024-01-15T02:59:16;44.97;;;23.37;;
71679;SDS011;59512;42.662;23.254;2024-01-15T03:01:41;54.57;;;27.53;;
71679;SDS011;59512;42.662;23.254;2024-01-15T03:04:07;48.45;;;25.38;;
71679;SDS011;59512;42.662;23.254;2024-01-15T03:06:32;50.73;;;24.93;;
71679;SDS011;59512;42.662;23.254;2024-01-15T03:08:57;52.83;;;25.20;;
71679;SDS011;59512;42.662;23.254;2024-01-15T03:11:23;48.63;;;25.10;;
71679;SDS011;59512;42.662;23.254;2024-01-15T03:13:48;46.77;;;23.33;;
71679;SDS011;59512;42.662;23.254;2024-01-15T03:16:14;44.42;;;23.38;;
71679;SDS011;59512;42.662;23.254;2024-01-15T03:18:39;45.63;;;23.45;;
71679;SDS011;59512;42.662;23.254;2024-01-15T03:21:05;41.60;;;23.00;;
71679;SDS011;59512;42.662;23.254;2024-01-15T03:23:31;45.00;;;21.80;;
71679;SDS011;59512;42.662;23.254;2024-01-15T03:25:56;44.83;;;22.33;;
71679;SDS011;59512;42.662;23.254;2024-01-15T03:28:21;43.70;;;21.77;;
71679;SDS011;59512;42.662;23.254;2024-01-15T03:30:47;43.50;;;23.43;;
71679;SDS011;59512;42.662;23.254;2024-01-15T03:33:12;46.73;;;23.87;;
71679;SDS011;59512;42.662;23.254;2024-01-15T03:35:38;44.57;;;22.90;;
71679;SDS011;59512;42.662;23.254;2024-01-15T03:38:03;45.70;;;23.50;;
71679;SDS011;59512;42.662;23.254;2024-01-15T03:40:28;42.50;;;21.63;;
71679;SDS011;59512;42.662;23.254;2024-01-15T03:42:54;43.60;;;23.33;;
71679;SDS011;59512;42.662;23.254;2024-01-15T03:45:19;53.70;;;26.13;;
71679;SDS011;59512;42.662;23.254;2024-01-15T03:47:45;46.33;;;24.43;;
71679;SDS011;59512;42.662;23.254;2024-01-15T03:50:11;45.60;;;23.20;;
71679;SDS011;59512;42.662;23.254;2024-01-15T03:52:37;42.40;;;21.77;;
71679;SDS011;59512;42.662;23.254;2024-01-15T03:55:03;40.40;;;21.35;;
71679;SDS011;59512;42.662;23.254;2024-01-15T03:57:29;41.27;;;21.03;;
71679;SDS011;59512;42.662;23.254;2024-01-15T03:59:55;44.28;;;22.13;;
71679;SDS011;59512;42.662;23.254;2024-01-15T04:02:20;68.80;;;32.00;;
71679;SDS011;59512;42.662;23.254;2024-01-15T04:04:45;78.57;;;38.23;;
71679;SDS011;59512;42.662;23.254;2024-01-15T04:07:11;74.67;;;35.67;;
71679;SDS011;59512;42.662;23.254;2024-01-15T04:09:36;70.43;;;33.90;;
71679;SDS011;59512;42.662;23.254;2024-01-15T04:12:01;76.57;;;36.70;;
71679;SDS011;59512;42.662;23.254;2024-01-15T04:14:27;72.13;;;34.37;;
71679;SDS011;59512;42.662;23.254;2024-01-15T04:16:53;66.78;;;33.58;;
71679;SDS011;59512;42.662;23.254;2024-01-15T04:19:19;68.13;;;32.23;;
71679;SDS011;59512;42.662;23.254;2024-01-15T04:21:44;163.25;;;61.35;;
71679;SDS011;59512;42.662;23.254;2024-01-15T04:24:09;163.15;;;63.08;;
71679;SDS011;59512;42.662;23.254;2024-01-15T04:26:35;143.60;;;56.03;;
71679;SDS011;59512;42.662;23.254;2024-01-15T04:29:00;261.10;;;100.77;;
71679;SDS011;59512;42.662;23.254;2024-01-15T04:31:26;316.03;;;118.23;;
71679;SDS011;59512;42.662;23.254;2024-01-15T04:33:54;155.15;;;62.67;;
71679;SDS011;59512;42.662;23.254;2024-01-15T04:36:19;113.90;;;50.53;;
71679;SDS011;59512;42.662;23.254;2024-01-15T04:38:45;122.80;;;56.30;;
71679;SDS011;59512;42.662;23.254;2024-01-15T04:41:11;108.22;;;53.08;;
71679;SDS011;59512;42.662;23.254;2024-01-15T04:43:37;122.10;;;53.90;;
71679;SDS011;59512;42.662;23.254;2024-01-15T04:46:03;76.25;;;36.97;;
71679;SDS011;59512;42.662;23.254;2024-01-15T04:48:30;80.82;;;40.90;;
71679;SDS011;59512;42.662;23.254;2024-01-15T04:50:56;67.43;;;34.43;;
71679;SDS011;59512;42.662;23.254;2024-01-15T04:53:21;70.53;;;37.13;;
71679;SDS011;59512;42.662;23.254;2024-01-15T04:55:46;62.00;;;31.52;;
71679;SDS011;59512;42.662;23.254;2024-01-15T04:58:12;77.90;;;38.40;;
71679;SDS011;59512;42.662;23.254;2024-01-15T05:00:37;61.40;;;32.90;;
71679;SDS011;59512;42.662;23.254;2024-01-15T05:03:03;58.03;;;29.10;;
71679;SDS011;59512;42.662;23.254;2024-01-15T05:05:28;55.53;;;27.67;;
71679;SDS011;59512;42.662;23.254;2024-01-15T05:07:54;54.78;;;27.73;;
71679;SDS011;59512;42.662;23.254;2024-01-15T05:10:19;60.00;;;30.00;;
71679;SDS011;59512;42.662;23.254;2024-01-15T05:12:44;54.63;;;28.90;;
71679;SDS011;59512;42.662;23.254;2024-01-15T05:15:10;63.83;;;34.17;;
71679;SDS011;59512;42.662;23.254;2024-01-15T05:17:35;80.30;;;43.03;;
71679;SDS011;59512;42.662;23.254;2024-01-15T05:20:01;78.37;;;40.57;;
71679;SDS011;59512;42.662;23.254;2024-01-15T05:22:26;69.60;;;38.15;;
71679;SDS011;59512;42.662;23.254;2024-01-15T05:24:51;84.47;;;43.92;;
71679;SDS011;59512;42.662;23.254;2024-01-15T05:27:17;96.70;;;52.03;;
71679;SDS011;59512;42.662;23.254;2024-01-15T05:29:43;87.23;;;50.20;;
71679;SDS011;59512;42.662;23.254;2024-01-15T05:32:08;100.88;;;53.13;;
71679;SDS011;59512;42.662;23.254;2024-01-15T05:34:33;97.03;;;52.45;;
71679;SDS011;59512;42.662;23.254;2024-01-15T05:36:59;112.57;;;62.00;;
71679;SDS011;59512;42.662;23.254;2024-01-15T05:39:25;108.13;;;58.88;;
71679;SDS011;59512;42.662;23.254;2024-01-15T05:41:51;94.83;;;51.70;;
71679;SDS011;59512;42.662;23.254;2024-01-15T05:44:16;94.57;;;52.03;;
71679;SDS011;59512;42.662;23.254;2024-01-15T05:46:43;100.70;;;53.57;;
71679;SDS011;59512;42.662;23.254;2024-01-15T05:49:10;153.02;;;75.18;;
71679;SDS011;59512;42.662;23.254;2024-01-15T05:51:35;110.10;;;58.80;;
71679;SDS011;59512;42.662;23.254;2024-01-15T05:54:00;102.53;;;55.17;;
71679;SDS011;59512;42.662;23.254;2024-01-15T05:56:26;98.07;;;53.37;;
71679;SDS011;59512;42.662;23.254;2024-01-15T05:58:51;91.20;;;48.50;;
71679;SDS011;59512;42.662;23.254;2024-01-15T06:01:17;88.03;;;47.43;;
71679;SDS011;59512;42.662;23.254;2024-01-15T06:03:42;93.83;;;50.53;;
71679;SDS011;59512;42.662;23.254;2024-01-15T06:06:08;91.23;;;48.17;;
71679;SDS011;59512;42.662;23.254;2024-01-15T06:08:34;81.43;;;44.35;;
71679;SDS011;59512;42.662;23.254;2024-01-15T06:10:59;83.63;;;45.50;;
71679;SDS011;59512;42.662;23.254;2024-01-15T06:13:24;86.60;;;43.42;;
71679;SDS011;59512;42.662;23.254;2024-01-15T06:15:50;84.53;;;44.90;;
71679;SDS011;59512;42.662;23.254;2024-01-15T06:18:15;71.73;;;38.77;;
71679;SDS011;59512;42.662;23.254;2024-01-15T06:20:41;73.53;;;40.50;;
71679;SDS011;59512;42.662;23.254;2024-01-15T06:23:06;76.97;;;43.75;;
71679;SDS011;59512;42.662;23.254;2024-01-15T06:25:32;80.47;;;43.00;;
71679;SDS011;59512;42.662;23.254;2024-01-15T06:27:57;76.57;;;41.03;;
71679;SDS011;59512;42.662;23.254;2024-01-15T06:30:23;78.60;;;45.30;;
71679;SDS011;59512;42.662;23.254;2024-01-15T06:32:48;80.53;;;41.90;;
71679;SDS011;59512;42.662;23.254;2024-01-15T06:35:14;77.93;;;42.15;;
71679;SDS011;59512;42.662;23.254;2024-01-15T06:37:39;78.73;;;43.20;;
71679;SDS011;59512;42.662;23.254;2024-01-15T06:40:05;79.73;;;42.87;;
71679;SDS011;59512;42.662;23.254;2024-01-15T06:42:31;70.15;;;37.85;;
71679;SDS011;59512;42.662;23.254;2024-01-15T06:44:56;64.20;;;36.57;;
71679;SDS011;59512;42.662;23.254;2024-01-15T06:47:22;63.60;;;35.57;;
71679;SDS011;59512;42.662;23.254;2024-01-15T06:49:47;66.87;;;34.93;;
71679;SDS011;59512;42.662;23.254;2024-01-15T06:52:12;62.17;;;34.97;;
71679;SDS011;59512;42.662;23.254;2024-01-15T06:54:38;65.63;;;36.20;;
71679;SDS011;59512;42.662;23.254;2024-01-15T06:57:03;65.10;;;37.13;;
71679;SDS011;59512;42.662;23.254;2024-01-15T06:59:29;67.70;;;38.05;;
71679;SDS011;59512;42.662;23.254;2024-01-15T07:01:54;63.13;;;35.73;;
71679;SDS011;59512;42.662;23.254;2024-01-15T07:04:20;65.28;;;35.47;;
71679;SDS011;59512;42.662;23.254;2024-01-15T07:06:45;76.80;;;39.10;;
71679;SDS011;59512;42.662;23.254;2024-01-15T07:09:13;68.57;;;37.77;;
71679;SDS011;59512;42.662;23.254;2024-01-15T07:11:38;67.75;;;36.75;;
71679;SDS011;59512;42.662;23.254;2024-01-15T07:14:03;76.50;;;42.33;;
71679;SDS011;59512;42.662;23.254;2024-01-15T07:16:29;66.20;;;37.33;;
71679;SDS011;59512;42.662;23.254;2024-01-15T07:18:54;67.10;;;36.90;;
71679;SDS011;59512;42.662;23.254;2024-01-15T07:21:20;60.13;;;34.20;;
71679;SDS011;59512;42.662;23.254;2024-01-15T07:23:45;63.13;;;34.40;;
71679;SDS011;59512;42.662;23.254;2024-01-15T07:26:11;63.87;;;32.50;;
71679;SDS011;59512;42.662;23.254;2024-01-15T07:28:36;55.40;;;29.23;;
71679;SDS011;59512;42.662;23.254;2024-01-15T07:31:02;55.10;;;32.43;;
71679;SDS011;59512;42.662;23.254;2024-01-15T07:33:28;68.10;;;37.05;;
71679;SDS011;59512;42.662;23.254;2024-01-15T07:35:54;65.93;;;37.83;;
71679;SDS011;59512;42.662;23.254;2024-01-15T07:38:19;73.30;;;40.13;;
71679;SDS011;59512;42.662;23.254;2024-01-15T07:40:45;77.37;;;44.77;;
71679;SDS011;59512;42.662;23.254;2024-01-15T07:43:14;77.70;;;44.85;;
71679;SDS011;59512;42.662;23.254;2024-01-15T07:45:39;69.17;;;41.13;;
71679;SDS011;59512;42.662;23.254;2024-01-15T07:48:05;64.35;;;35.40;;
71679;SDS011;59512;42.662;23.254;2024-01-15T07:50:31;56.93;;;31.03;;
71679;SDS011;59512;42.662;23.254;2024-01-15T07:52:56;58.60;;;29.07;;
71679;SDS011;59512;42.662;23.254;2024-01-15T07:55:21;62.85;;;37.08;;
71679;SDS011;59512;42.662;23.254;2024-01-15T07:57:47;64.68;;;36.67;;
71679;SDS011;59512;42.662;23.254;2024-01-15T08:00:13;80.53;;;48.50;;
71679;SDS011;59512;42.662;23.254;2024-01-15T08:02:38;69.90;;;40.05;;
71679;SDS011;59512;42.662;23.254;2024-01-15T08:05:04;89.87;;;51.70;;
71679;SDS011;59512;42.662;23.254;2024-01-15T08:07:30;110.95;;;61.22;;
71679;SDS011;59512;42.662;23.254;2024-01-15T08:09:55;102.00;;;58.87;;
71679;SDS011;59512;42.662;23.254;2024-01-15T08:12:21;102.83;;;62.20;;
71679;SDS011;59512;42.662;23.254;2024-01-15T08:14:47;110.53;;;64.60;;
71679;SDS011;59512;42.662;23.254;2024-01-15T08:17:12;110.40;;;66.50;;
71679;SDS011;59512;42.662;23.254;2024-01-15T08:19:38;103.63;;;63.17;;
71679;SDS011;59512;42.662;23.254;2024-01-15T08:22:06;93.43;;;53.75;;
71679;SDS011;59512;42.662;23.254;2024-01-15T08:24:31;94.73;;;54.57;;
71679;SDS011;59512;42.662;23.254;2024-01-15T08:26:57;90.60;;;51.30;;
71679;SDS011;59512;42.662;23.254;2024-01-15T08:29:22;95.23;;;53.07;;
71679;SDS011;59512;42.662;23.254;2024-01-15T08:31:49;100.10;;;58.30;;
71679;SDS011;59512;42.662;23.254;2024-01-15T08:34:15;103.23;;;58.43;;
71679;SDS011;59512;42.662;23.254;2024-01-15T08:36:40;78.53;;;48.07;;
71679;SDS011;59512;42.662;23.254;2024-01-15T08:39:06;70.55;;;41.42;;
71679;SDS011;59512;42.662;23.254;2024-01-15T08:41:34;69.43;;;37.70;;
71679;SDS011;59512;42.662;23.254;2024-01-15T08:43:59;64.07;;;37.63;;
71679;SDS011;59512;42.662;23.254;2024-01-15T08:46:25;67.67;;;37.23;;
71679;SDS011;59512;42.662;23.254;2024-01-15T08:48:50;70.53;;;38.90;;
71679;SDS011;59512;42.662;23.254;2024-01-15T08:51:16;71.88;;;40.53;;
71679;SDS011;59512;42.662;23.254;2024-01-15T08:53:43;77.77;;;43.63;;
71679;SDS011;59512;42.662;23.254;2024-01-15T08:56:09;66.65;;;40.50;;
71679;SDS011;59512;42.662;23.254;2024-01-15T08:58:34;65.40;;;37.07;;
71679;SDS011;59512;42.662;23.254;2024-01-15T09:01:01;64.65;;;36.95;;
71679;SDS011;59512;42.662;23.254;2024-01-15T09:03:26;63.27;;;35.70;;
71679;SDS011;59512;42.662;23.254;2024-01-15T09:05:52;61.30;;;34.13;;
71679;SDS011;59512;42.662;23.254;2024-01-15T09:08:18;59.60;;;33.63;;
71679;SDS011;59512;42.662;23.254;2024-01-15T09:10:43;60.07;;;33.00;;
71679;SDS011;59512;42.662;23.254;2024-01-15T09:13:09;61.60;;;35.43;;
71679;SDS011;59512;42.662;23.254;2024-01-15T09:15:34;58.23;;;34.63;;
71679;SDS011;59512;42.662;23.254;2024-01-15T09:17:59;53.47;;;31.13;;
71679;SDS011;59512;42.662;23.254;2024-01-15T09:20:27;57.70;;;32.05;;
71679;SDS011;59512;42.662;23.254;2024-01-15T09:22:53;58.03;;;33.30;;
71679;SDS011;59512;42.662;23.254;2024-01-15T09:25:18;55.03;;;33.00;;
71679;SDS011;59512;42.662;23.254;2024-01-15T09:27:44;54.73;;;33.53;;
71679;SDS011;59512;42.662;23.254;2024-01-15T09:30:09;60.03;;;36.80;;
71679;SDS011;59512;42.662;23.254;2024-01-15T09:32:36;67.40;;;38.10;;
71679;SDS011;59512;42.662;23.254;2024-01-15T09:35:01;68.38;;;37.88;;
71679;SDS011;59512;42.662;23.254;2024-01-15T09:37:27;64.60;;;36.47;;
71679;SDS011;59512;42.662;23.254;2024-01-15T09:39:52;64.27;;;36.97;;
71679;SDS011;59512;42.662;23.254;2024-01-15T09:42:20;58.50;;;33.53;;
71679;SDS011;59512;42.662;23.254;2024-01-15T09:44:47;61.00;;;35.20;;
71679;SDS011;59512;42.662;23.254;2024-01-15T09:47:13;65.00;;;36.00;;
71679;SDS011;59512;42.662;23.254;2024-01-15T09:49:41;64.55;;;37.55;;
71679;SDS011;59512;42.662;23.254;2024-01-15T09:52:07;69.85;;;39.33;;
71679;SDS011;59512;42.662;23.254;2024-01-15T09:54:33;71.37;;;40.70;;
71679;SDS011;59512;42.662;23.254;2024-01-15T09:56:59;104.50;;;57.15;;
71679;SDS011;59512;42.662;23.254;2024-01-15T09:59:24;95.87;;;50.80;;
71679;SDS011;59512;42.662;23.254;2024-01-15T10:01:50;122.43;;;64.80;;
71679;SDS011;59512;42.662;23.254;2024-01-15T10:04:17;66.45;;;34.97;;
71679;SDS011;59512;42.662;23.254;2024-01-15T10:06:44;51.57;;;25.63;;
71679;SDS011;59512;42.662;23.254;2024-01-15T10:09:13;48.80;;;26.65;;
71679;SDS011;59512;42.662;23.254;2024-01-15T10:11:43;59.05;;;29.77;;
71679;SDS011;59512;42.662;23.254;2024-01-15T10:14:09;51.33;;;30.67;;
71679;SDS011;59512;42.662;23.254;2024-01-15T10:16:39;49.92;;;29.10;;
71679;SDS011;59512;42.662;23.254;2024-01-15T10:19:04;53.97;;;28.90;;
71679;SDS011;59512;42.662;23.254;2024-01-15T10:21:33;55.15;;;30.95;;
71679;SDS011;59512;42.662;23.254;2024-01-15T10:24:01;49.10;;;28.35;;
71679;SDS011;59512;42.662;23.254;2024-01-15T10:26:29;49.07;;;28.37;;
71679;SDS011;59512;42.662;23.254;2024-01-15T10:28:55;54.63;;;31.67;;
71679;SDS011;59512;42.662;23.254;2024-01-15T10:31:21;62.08;;;33.22;;
71679;SDS011;59512;42.662;23.254;2024-01-15T10:33:48;62.57;;;35.13;;
71679;SDS011;59512;42.662;23.254;2024-01-15T10:36:14;67.13;;;39.65;;
71679;SDS011;59512;42.662;23.254;2024-01-15T10:38:41;64.82;;;36.50;;
71679;SDS011;59512;42.662;23.254;2024-01-15T10:41:07;66.33;;;39.43;;
71679;SDS011;59512;42.662;23.254;2024-01-15T10:43:33;66.70;;;38.42;;
71679;SDS011;59512;42.662;23.254;2024-01-15T10:45:59;72.03;;;40.20;;
71679;SDS011;59512;42.662;23.254;2024-01-15T10:48:24;64.93;;;38.97;;
71679;SDS011;59512;42.662;23.254;2024-01-15T10:50:51;68.63;;;39.70;;
71679;SDS011;59512;42.662;23.254;2024-01-15T10:53:17;75.82;;;43.05;;
71679;SDS011;59512;42.662;23.254;2024-01-15T10:55:42;68.93;;;40.53;;
71679;SDS011;59512;42.662;23.254;2024-01-15T10:58:08;67.35;;;40.20;;
71679;SDS011;59512;42.662;23.254;2024-01-15T11:00:35;71.17;;;40.77;;
71679;SDS011;59512;42.662;23.254;2024-01-15T11:03:03;76.55;;;42.08;;
71679;SDS011;59512;42.662;23.254;2024-01-15T11:05:34;72.82;;;40.45;;
71679;SDS011;59512;42.662;23.254;2024-01-15T11:08:04;72.05;;;40.92;;
71679;SDS011;59512;42.662;23.254;2024-01-15T11:16:02;69.50;;;41.80;;
71679;SDS011;59512;42.662;23.254;2024-01-15T11:18:34;65.30;;;37.58;;
71679;SDS011;59512;42.662;23.254;2024-01-15T11:29:00;63.05;;;35.67;;
71679;SDS011;59512;42.662;23.254;2024-01-15T11:34:08;61.55;;;35.83;;
71679;SDS011;59512;42.662;23.254;2024-01-15T11:41:56;69.50;;;35.72;;
71679;SDS011;59512;42.662;23.254;2024-01-15T11:44:22;62.17;;;34.40;;
71679;SDS011;59512;42.662;23.254;2024-01-15T11:46:57;65.87;;;36.23;;
71679;SDS011;59512;42.662;23.254;2024-01-15T11:52:10;68.32;;;36.50;;
71679;SDS011;59512;42.662;23.254;2024-01-15T11:54:40;68.13;;;39.83;;
71679;SDS011;59512;42.662;23.254;2024-01-15T11:57:13;63.73;;;36.60;;
71679;SDS011;59512;42.662;23.254;2024-01-15T11:59:44;66.22;;;38.03;;
71679;SDS011;59512;42.662;23.254;2024-01-15T12:02:10;69.10;;;37.75;;
71679;SDS011;59512;42.662;23.254;2024-01-15T12:04:38;62.30;;;35.25;;
71679;SDS011;59512;42.662;23.254;2024-01-15T12:07:04;59.53;;;34.20;;
71679;SDS011;59512;42.662;23.254;2024-01-15T12:09:29;60.03;;;34.87;;
71679;SDS011;59512;42.662;23.254;2024-01-15T12:11:57;65.50;;;35.77;;
71679;SDS011;59512;42.662;23.254;2024-01-15T12:14:32;58.47;;;32.00;;
71679;SDS011;59512;42.662;23.254;2024-01-15T12:16:57;54.90;;;30.88;;
71679;SDS011;59512;42.662;23.254;2024-01-15T12:19:23;52.80;;;30.87;;
71679;SDS011;59512;42.662;23.254;2024-01-15T12:21:50;55.40;;;30.73;;
71679;SDS011;59512;42.662;23.254;2024-01-15T12:24:16;54.17;;;30.52;;
71679;SDS011;59512;42.662;23.254;2024-01-15T12:26:42;52.28;;;30.13;;
71679;SDS011;59512;42.662;23.254;2024-01-15T12:29:07;52.17;;;29.97;;
71679;SDS011;59512;42.662;23.254;2024-01-15T12:31:33;51.90;;;29.07;;
71679;SDS011;59512;42.662;23.254;2024-01-15T12:34:01;52.30;;;29.75;;
71679;SDS011;59512;42.662;23.254;2024-01-15T12:36:26;53.47;;;28.77;;
71679;SDS011;59512;42.662;23.254;2024-01-15T12:38:52;46.13;;;27.10;;
71679;SDS011;59512;42.662;23.254;2024-01-15T12:41:17;50.00;;;29.57;;
71679;SDS011;59512;42.662;23.254;2024-01-15T12:43:43;50.23;;;28.00;;
71679;SDS011;59512;42.662;23.254;2024-01-15T12:46:08;56.47;;;29.77;;
71679;SDS011;59512;42.662;23.254;2024-01-15T12:48:34;49.63;;;27.70;;
71679;SDS011;59512;42.662;23.254;2024-01-15T12:50:59;52.73;;;28.80;;
71679;SDS011;59512;42.662;23.254;2024-01-15T12:53:25;49.55;;;30.30;;
71679;SDS011;59512;42.662;23.254;2024-01-15T12:55:52;50.58;;;27.13;;
71679;SDS011;59512;42.662;23.254;2024-01-15T12:58:18;50.43;;;26.67;;
71679;SDS011;59512;42.662;23.254;2024-01-15T13:00:44;49.88;;;28.48;;
71679;SDS011;59512;42.662;23.254;2024-01-15T13:03:10;56.17;;;31.47;;
71679;SDS011;59512;42.662;23.254;2024-01-15T13:05:35;53.70;;;31.42;;
71679;SDS011;59512;42.662;23.254;2024-01-15T13:08:01;64.20;;;34.60;;
71679;SDS011;59512;42.662;23.254;2024-01-15T13:10:26;61.07;;;36.03;;
71679;SDS011;59512;42.662;23.254;2024-01-15T13:12:55;62.60;;;34.92;;
71679;SDS011;59512;42.662;23.254;2024-01-15T13:15:20;61.50;;;33.93;;
71679;SDS011;59512;42.662;23.254;2024-01-15T13:17:45;55.58;;;33.78;;
71679;SDS011;59512;42.662;23.254;2024-01-15T13:20:11;48.45;;;28.60;;
71679;SDS011;59512;42.662;23.254;2024-01-15T13:22:37;53.90;;;32.40;;
71679;SDS011;59512;42.662;23.254;2024-01-15T13:25:04;51.45;;;29.48;;
71679;SDS011;59512;42.662;23.254;2024-01-15T13:27:32;56.75;;;30.98;;
71679;SDS011;59512;42.662;23.254;2024-01-15T13:29:57;53.03;;;29.73;;
71679;SDS011;59512;42.662;23.254;2024-01-15T13:32:25;49.50;;;29.92;;
71679;SDS011;59512;42.662;23.254;2024-01-15T13:34:51;56.47;;;32.40;;
71679;SDS011;59512;42.662;23.254;2024-01-15T13:37:16;51.10;;;28.47;;
71679;SDS011;59512;42.662;23.254;2024-01-15T13:39:42;50.43;;;28.27;;
71679;SDS011;59512;42.662;23.254;2024-01-15T13:42:07;61.80;;;32.37;;
71679;SDS011;59512;42.662;23.254;2024-01-15T13:44:33;61.30;;;34.97;;
71679;SDS011;59512;42.662;23.254;2024-01-15T13:46:58;53.03;;;31.07;;
71679;SDS011;59512;42.662;23.254;2024-01-15T13:49:24;53.47;;;30.93;;
71679;SDS011;59512;42.662;23.254;2024-01-15T13:51:49;56.30;;;31.57;;
71679;SDS011;59512;42.662;23.254;2024-01-15T13:54:15;52.83;;;31.70;;
71679;SDS011;59512;42.662;23.254;2024-01-15T13:56:40;58.28;;;32.88;;
71679;SDS011;59512;42.662;23.254;2024-01-15T13:59:06;56.60;;;31.40;;
71679;SDS011;59512;42.662;23.254;2024-01-15T14:01:32;56.22;;;33.05;;
71679;SDS011;59512;42.662;23.254;2024-01-15T14:03:58;63.23;;;34.33;;
71679;SDS011;59512;42.662;23.254;2024-01-15T14:06:23;56.75;;;31.25;;
71679;SDS011;59512;42.662;23.254;2024-01-15T14:08:49;55.93;;;32.37;;
71679;SDS011;59512;42.662;23.254;2024-01-15T14:11:14;56.87;;;33.63;;
71679;SDS011;59512;42.662;23.254;2024-01-15T14:13:40;55.45;;;32.83;;
71679;SDS011;59512;42.662;23.254;2024-01-15T14:16:05;55.80;;;33.20;;
71679;SDS011;59512;42.662;23.254;2024-01-15T14:18:31;65.40;;;38.40;;
71679;SDS011;59512;42.662;23.254;2024-01-15T14:20:57;60.80;;;35.75;;
71679;SDS011;59512;42.662;23.254;2024-01-15T14:23:22;63.47;;;36.97;;
71679;SDS011;59512;42.662;23.254;2024-01-15T14:25:48;66.87;;;37.13;;
71679;SDS011;59512;42.662;23.254;2024-01-15T14:28:13;57.15;;;33.55;;